createdAt,value
2023-04-25T00:00:43.477Z,0.63
2023-04-25T00:01:43.559Z,0.32
2023-04-25T00:02:43.795Z,0.36
2023-04-25T00:03:43.885Z,0.30
2023-04-25T00:04:44.169Z,0.26
2023-04-25T00:05:43.970Z,0.63
2023-04-25T00:06:43.880Z,0.48
2023-04-25T00:07:43.927Z,0.48
2023-04-25T00:08:43.996Z,0.30
2023-04-25T00:09:44.068Z,0.57
2023-04-25T00:10:44.145Z,0.29
2023-04-25T00:11:44.213Z,0.48
2023-04-25T00:12:44.275Z,0.73
2023-04-25T00:13:44.319Z,0.43
2023-04-25T00:14:44.379Z,0.45
2023-04-25T00:15:44.466Z,0.48
2023-04-25T00:16:44.495Z,0.36
2023-04-25T00:17:44.569Z,0.38
2023-04-25T00:18:44.634Z,0.24
2023-04-25T00:19:44.700Z,0.48
2023-04-25T00:20:44.978Z,0.39
2023-04-25T00:21:44.808Z,0.67
2023-04-25T00:22:44.872Z,0.46
2023-04-25T00:23:44.938Z,0.45
2023-04-25T00:24:45.012Z,0.40
2023-04-25T00:25:45.082Z,0.43
2023-04-25T00:26:45.122Z,0.34
2023-04-25T00:27:45.186Z,0.27
2023-04-25T00:28:45.230Z,0.21
2023-04-25T00:29:45.304Z,0.36
2023-04-25T00:30:45.375Z,0.42
2023-04-25T00:31:45.444Z,0.31
2023-04-25T00:32:45.555Z,0.54
2023-04-25T00:33:45.525Z,0.33
2023-04-25T00:34:45.647Z,0.32
2023-04-25T00:35:45.661Z,0.44
2023-04-25T00:36:45.683Z,0.33
2023-04-25T00:37:45.762Z,0.28
2023-04-25T00:38:45.817Z,0.34
2023-04-25T00:39:45.888Z,0.40
2023-04-25T00:40:45.963Z,0.38
2023-04-25T00:41:46.033Z,0.57
2023-04-25T00:42:46.031Z,0.48
2023-04-25T00:43:46.132Z,0.61
2023-04-25T00:44:46.193Z,0.36
2023-04-25T00:45:46.210Z,0.37
2023-04-25T00:46:46.301Z,0.51
2023-04-25T00:47:46.403Z,0.15
2023-04-25T00:48:46.546Z,0.52
2023-04-25T00:49:46.518Z,0.28
2023-04-25T00:50:46.518Z,0.35
2023-04-25T00:51:46.597Z,0.42
2023-04-25T00:52:46.703Z,0.59
2023-04-25T00:53:46.740Z,0.34
2023-04-25T00:54:46.786Z,0.44
2023-04-25T00:55:46.852Z,0.40
2023-04-25T00:56:46.867Z,0.55
2023-04-25T00:57:46.945Z,0.79
2023-04-25T00:58:46.972Z,0.42
2023-04-25T00:59:47.075Z,0.41
2023-04-25T01:00:47.136Z,0.36
2023-04-25T01:01:47.233Z,0.48
2023-04-25T01:02:47.348Z,0.44
2023-04-25T01:03:47.340Z,0.42
2023-04-25T01:04:47.348Z,0.37
2023-04-25T01:05:47.418Z,0.51
2023-04-25T01:06:47.473Z,0.31
2023-04-25T01:07:47.547Z,0.44
2023-04-25T01:08:47.583Z,0.49
2023-04-25T01:09:48.018Z,0.37
2023-04-25T01:10:47.814Z,0.35
2023-04-25T01:11:47.762Z,0.58
2023-04-25T01:12:47.830Z,0.32
2023-04-25T01:13:47.952Z,0.44
2023-04-25T01:14:47.977Z,0.32
2023-04-25T01:15:47.995Z,0.60
2023-04-25T01:16:48.089Z,0.27
2023-04-25T01:17:48.230Z,0.35
2023-04-25T01:18:48.195Z,0.27
2023-04-25T01:19:48.229Z,0.39
2023-04-25T01:20:48.278Z,0.48
2023-04-25T01:21:48.329Z,0.71
2023-04-25T01:22:48.408Z,0.41
2023-04-25T01:23:48.558Z,0.23
2023-04-25T01:24:48.525Z,0.34
2023-04-25T01:25:48.590Z,0.25
2023-04-25T01:26:48.644Z,0.30
2023-04-25T01:27:48.692Z,0.28
2023-04-25T01:28:48.757Z,0.40
2023-04-25T01:29:48.805Z,0.35
2023-04-25T01:30:48.879Z,0.31
2023-04-25T01:31:48.985Z,0.47
2023-04-25T01:32:49.105Z,0.46
2023-04-25T01:33:49.360Z,0.33
2023-04-25T01:34:49.119Z,0.22
2023-04-25T01:35:49.173Z,0.52
2023-04-25T01:36:49.230Z,0.20
2023-04-25T01:37:49.285Z,0.43
2023-04-25T01:38:49.345Z,0.26
2023-04-25T01:39:49.395Z,0.19
2023-04-25T01:40:49.472Z,0.24
2023-04-25T01:41:49.503Z,0.39
2023-04-25T01:42:49.557Z,0.41
2023-04-25T01:43:49.812Z,0.35
2023-04-25T01:44:49.668Z,0.33
2023-04-25T01:45:49.773Z,0.45
2023-04-25T01:46:49.804Z,0.59
2023-04-25T01:47:50.007Z,0.53
2023-04-25T01:48:49.926Z,0.42
2023-04-25T01:49:50.021Z,0.53
2023-04-25T01:50:50.025Z,0.26
2023-04-25T01:51:50.094Z,0.24
2023-04-25T01:52:50.105Z,0.19
2023-04-25T01:53:50.375Z,0.21
2023-04-25T01:54:50.216Z,0.39
2023-04-25T01:55:50.310Z,0.38
2023-04-25T01:56:50.372Z,0.42
2023-04-25T01:57:50.388Z,0.38
2023-04-25T01:58:50.439Z,0.30
2023-04-25T01:59:50.535Z,0.45
2023-04-25T02:00:50.557Z,0.43
2023-04-25T02:01:50.720Z,0.31
2023-04-25T02:02:50.750Z,1.01
2023-04-25T02:03:50.981Z,0.33
2023-04-25T02:04:50.823Z,0.42
2023-04-25T02:05:50.852Z,0.41
2023-04-25T02:06:51.033Z,0.36
2023-04-25T02:07:50.972Z,0.52
2023-04-25T02:08:51.016Z,0.49
2023-04-25T02:09:51.089Z,0.50
2023-04-25T02:10:51.152Z,0.34
2023-04-25T02:11:51.218Z,0.42
2023-04-25T02:12:51.283Z,0.34
2023-04-25T02:13:51.592Z,0.45
2023-04-25T02:14:51.395Z,0.27
2023-04-25T02:15:51.508Z,0.32
2023-04-25T02:16:51.600Z,0.36
2023-04-25T02:17:51.582Z,0.69
2023-04-25T02:18:51.679Z,0.23
2023-04-25T02:19:51.694Z,0.41
2023-04-25T02:20:51.769Z,0.33
2023-04-25T02:21:51.817Z,0.30
2023-04-25T02:22:51.948Z,0.29
2023-04-25T02:23:52.206Z,0.36
2023-04-25T02:24:52.007Z,0.32
2023-04-25T02:25:52.059Z,0.36
2023-04-25T02:26:52.103Z,0.42
2023-04-25T02:27:52.169Z,0.24
2023-04-25T02:28:52.221Z,0.44
2023-04-25T02:29:52.294Z,0.35
2023-04-25T02:30:52.358Z,0.37
2023-04-25T02:31:52.486Z,0.51
2023-04-25T02:32:52.506Z,0.24
2023-04-25T02:33:52.810Z,0.32
2023-04-25T02:34:52.586Z,0.33
2023-04-25T02:35:52.628Z,0.62
2023-04-25T02:36:52.695Z,0.21
2023-04-25T02:37:52.726Z,0.36
2023-04-25T02:38:52.802Z,0.38
2023-04-25T02:39:52.851Z,0.25
2023-04-25T02:40:52.934Z,0.38
2023-04-25T02:41:52.936Z,0.28
2023-04-25T02:42:52.990Z,0.28
2023-04-25T02:43:53.236Z,0.40
2023-04-25T02:44:53.148Z,0.31
2023-04-25T02:45:53.145Z,0.42
2023-04-25T02:46:53.310Z,0.28
2023-04-25T02:47:53.315Z,0.37
2023-04-25T02:48:53.315Z,0.34
2023-04-25T02:49:53.361Z,0.55
2023-04-25T02:50:53.427Z,0.39
2023-04-25T02:51:53.481Z,0.24
2023-04-25T02:52:53.521Z,0.39
2023-04-25T02:53:53.627Z,0.36
2023-04-25T02:54:53.641Z,0.27
2023-04-25T02:55:53.675Z,0.23
2023-04-25T02:56:53.750Z,0.48
2023-04-25T02:57:53.787Z,0.23
2023-04-25T02:58:53.917Z,0.83
2023-04-25T02:59:53.967Z,0.22
2023-04-25T03:00:53.966Z,0.32
2023-04-25T03:01:54.561Z,0.53
2023-04-25T03:02:54.114Z,0.42
2023-04-25T03:03:54.457Z,0.29
2023-04-25T03:04:54.178Z,0.26
2023-04-25T03:05:54.218Z,0.36
2023-04-25T03:06:54.303Z,0.29
2023-04-25T03:07:54.374Z,0.43
2023-04-25T03:08:54.393Z,0.54
2023-04-25T03:09:54.452Z,0.34
2023-04-25T03:10:54.484Z,0.29
2023-04-25T03:11:54.589Z,0.32
2023-04-25T03:12:54.612Z,0.60
2023-04-25T03:13:54.629Z,0.39
2023-04-25T03:14:54.699Z,0.36
2023-04-25T03:15:54.744Z,0.50
2023-04-25T03:16:54.920Z,0.22
2023-04-25T03:17:54.888Z,0.43
2023-04-25T03:18:54.924Z,0.31
2023-04-25T03:19:54.946Z,0.35
2023-04-25T03:20:55.013Z,0.31
2023-04-25T03:21:55.085Z,0.26
2023-04-25T03:22:55.173Z,0.82
2023-04-25T03:23:55.191Z,0.36
2023-04-25T03:24:55.245Z,0.20
2023-04-25T03:25:55.267Z,0.51
2023-04-25T03:26:55.386Z,0.31
2023-04-25T03:27:57.063Z,0.37
2023-04-25T03:28:55.432Z,0.21
2023-04-25T03:29:55.490Z,0.36
2023-04-25T03:30:55.556Z,0.52
2023-04-25T03:31:56.124Z,0.55
2023-04-25T03:32:55.731Z,0.29
2023-04-25T03:33:55.690Z,0.36
2023-04-25T03:34:55.787Z,0.39
2023-04-25T03:35:55.870Z,0.37
2023-04-25T03:36:55.883Z,0.36
2023-04-25T03:37:55.961Z,0.34
2023-04-25T03:38:55.966Z,0.48
2023-04-25T03:39:56.060Z,0.47
2023-04-25T03:40:56.100Z,0.31
2023-04-25T03:41:56.209Z,0.27
2023-04-25T03:42:56.199Z,0.27
2023-04-25T03:43:56.253Z,0.35
2023-04-25T03:44:56.314Z,0.39
2023-04-25T03:45:56.357Z,0.42
2023-04-25T03:46:56.424Z,0.29
2023-04-25T03:47:56.607Z,0.44
2023-04-25T03:48:56.552Z,0.45
2023-04-25T03:49:56.590Z,0.39
2023-04-25T03:50:56.660Z,0.25
2023-04-25T03:51:56.731Z,0.79
2023-04-25T03:52:56.738Z,0.41
2023-04-25T03:53:56.805Z,0.43
2023-04-25T03:54:56.848Z,0.48
2023-04-25T03:55:56.904Z,0.31
2023-04-25T03:56:56.975Z,0.77
2023-04-25T03:57:57.001Z,0.35
2023-04-25T03:58:57.056Z,0.33
2023-04-25T03:59:57.124Z,0.20
2023-04-25T04:00:57.172Z,0.33
2023-04-25T04:01:57.269Z,0.36
2023-04-25T04:02:57.433Z,0.37
2023-04-25T04:03:57.815Z,0.35
2023-04-25T04:04:57.791Z,0.22
2023-04-25T04:05:57.489Z,0.30
2023-04-25T04:06:57.543Z,0.48
2023-04-25T04:07:57.591Z,0.32
2023-04-25T04:08:57.686Z,0.45
2023-04-25T04:09:57.725Z,0.32
2023-04-25T04:10:57.759Z,0.39
2023-04-25T04:11:57.859Z,0.52
2023-04-25T04:12:57.932Z,0.47
2023-04-25T04:13:57.963Z,0.29
2023-04-25T04:14:58.005Z,0.20
2023-04-25T04:15:58.062Z,0.30
2023-04-25T04:16:58.100Z,0.36
2023-04-25T04:17:58.191Z,0.31
2023-04-25T04:18:58.223Z,0.48
2023-04-25T04:19:58.279Z,0.27
2023-04-25T04:20:58.326Z,0.25
2023-04-25T04:21:58.388Z,0.25
2023-04-25T04:22:58.464Z,0.26
2023-04-25T04:23:58.499Z,0.39
2023-04-25T04:24:58.571Z,0.25
2023-04-25T04:25:58.609Z,0.36
2023-04-25T04:26:58.666Z,0.31
2023-04-25T04:27:58.767Z,0.26
2023-04-25T04:28:58.989Z,0.25
2023-04-25T04:29:58.873Z,0.24
2023-04-25T04:30:58.958Z,0.47
2023-04-25T04:31:59.001Z,0.28
2023-04-25T04:32:59.108Z,0.33
2023-04-25T04:33:59.054Z,0.36
2023-04-25T04:34:59.164Z,0.38
2023-04-25T04:35:59.205Z,0.36
2023-04-25T04:36:59.244Z,0.61
2023-04-25T04:37:59.301Z,0.27
2023-04-25T04:38:59.368Z,0.37
2023-04-25T04:39:59.437Z,0.36
2023-04-25T04:40:59.475Z,0.21
2023-04-25T04:41:59.544Z,0.44
2023-04-25T04:42:59.594Z,0.33
2023-04-25T04:43:59.615Z,0.41
2023-04-25T04:44:59.719Z,0.31
2023-04-25T04:45:59.724Z,0.53
2023-04-25T04:46:59.798Z,0.54
2023-04-25T04:47:59.941Z,0.23
2023-04-25T04:48:59.931Z,0.29
2023-04-25T04:49:59.997Z,0.35
2023-04-25T04:51:00.029Z,0.76
2023-04-25T04:52:00.077Z,0.26
2023-04-25T04:53:00.138Z,0.31
2023-04-25T04:54:00.176Z,0.22
2023-04-25T04:55:00.256Z,0.15
2023-04-25T04:56:00.345Z,0.31
2023-04-25T04:57:00.353Z,0.33
2023-04-25T04:58:00.410Z,0.38
2023-04-25T04:59:00.458Z,0.22
2023-04-25T05:00:00.525Z,0.41
2023-04-25T05:01:00.589Z,0.32
2023-04-25T05:02:00.601Z,0.28
2023-04-25T05:03:00.709Z,0.36
2023-04-25T05:04:00.832Z,0.20
2023-04-25T05:05:00.814Z,0.28
2023-04-25T05:06:00.814Z,0.51
2023-04-25T05:07:00.878Z,0.48
2023-04-25T05:08:00.969Z,0.15
2023-04-25T05:09:01.004Z,0.41
2023-04-25T05:10:01.060Z,0.32
2023-04-25T05:11:01.057Z,0.28
2023-04-25T05:12:01.132Z,0.24
2023-04-25T05:13:01.200Z,0.16
2023-04-25T05:14:01.325Z,0.37
2023-04-25T05:15:01.291Z,0.28
2023-04-25T05:16:01.344Z,0.41
2023-04-25T05:17:01.400Z,0.34
2023-04-25T05:18:02.198Z,0.38
2023-04-25T05:19:01.508Z,0.33
2023-04-25T05:20:01.520Z,0.47
2023-04-25T05:21:01.578Z,0.42
2023-04-25T05:22:01.673Z,0.27
2023-04-25T05:23:01.713Z,0.23
2023-04-25T05:24:01.912Z,0.18
2023-04-25T05:25:01.809Z,0.40
2023-04-25T05:26:01.886Z,0.19
2023-04-25T05:27:02.679Z,0.25
2023-04-25T05:28:01.968Z,0.21
2023-04-25T05:29:02.022Z,0.37
2023-04-25T05:30:02.127Z,0.43
2023-04-25T05:31:02.118Z,0.29
2023-04-25T05:32:02.225Z,0.39
2023-04-25T05:33:02.720Z,0.35
2023-04-25T05:34:02.275Z,0.36
2023-04-25T05:35:02.370Z,0.77
2023-04-25T05:36:02.315Z,0.29
2023-04-25T05:37:02.351Z,0.82
2023-04-25T05:38:02.718Z,1.11
2023-04-25T05:39:02.416Z,1.33
2023-04-25T05:40:02.467Z,1.72
2023-04-25T05:41:02.669Z,1.60
2023-04-25T05:42:02.570Z,1.68
2023-04-25T05:43:02.617Z,2.58
2023-04-25T05:44:02.772Z,2.49
2023-04-25T05:45:02.674Z,2.76
2023-04-25T05:46:03.072Z,2.85
2023-04-25T05:47:02.741Z,2.35
2023-04-25T05:48:03.138Z,3.38
2023-04-25T05:49:02.782Z,3.36
2023-04-25T05:50:02.812Z,3.31
2023-04-25T05:51:03.639Z,2.95
2023-04-25T05:52:02.846Z,2.38
2023-04-25T05:53:02.863Z,2.97
2023-04-25T05:54:02.889Z,3.79
2023-04-25T05:55:02.902Z,3.21
2023-04-25T05:56:02.922Z,3.94
2023-04-25T05:57:03.114Z,6.16
2023-04-25T05:58:02.948Z,2.98
2023-04-25T05:59:02.964Z,5.21
2023-04-25T06:00:02.990Z,5.80
2023-04-25T06:01:03.041Z,5.08
2023-04-25T06:02:03.101Z,4.21
2023-04-25T06:03:03.273Z,4.03
2023-04-25T06:04:03.480Z,5.39
2023-04-25T06:05:03.384Z,4.71
2023-04-25T06:06:03.246Z,4.08
2023-04-25T06:07:03.131Z,5.16
2023-04-25T06:08:03.124Z,5.74
2023-04-25T06:09:03.148Z,5.88
2023-04-25T06:10:04.208Z,4.80
2023-04-25T06:11:03.163Z,5.95
2023-04-25T06:12:03.163Z,3.89
2023-04-25T06:13:03.194Z,6.32
2023-04-25T06:14:03.166Z,4.95
2023-04-25T06:15:04.781Z,4.63
2023-04-25T06:16:04.288Z,4.74
2023-04-25T06:17:03.162Z,4.28
2023-04-25T06:18:03.301Z,4.27
2023-04-25T06:19:03.131Z,4.93
2023-04-25T06:20:04.627Z,4.50
2023-04-25T06:21:03.132Z,4.65
2023-04-25T06:22:03.116Z,5.50
2023-04-25T06:23:03.150Z,4.56
2023-04-25T06:24:03.114Z,5.81
2023-04-25T06:25:03.108Z,6.16
2023-04-25T06:26:03.333Z,5.72
2023-04-25T06:27:03.093Z,6.36
2023-04-25T06:28:03.202Z,4.57
2023-04-25T06:29:03.076Z,5.50
2023-04-25T06:30:03.048Z,6.36
2023-04-25T06:31:03.089Z,5.65
2023-04-25T06:32:03.056Z,6.01
2023-04-25T06:33:03.111Z,8.96
2023-04-25T06:34:03.181Z,5.85
2023-04-25T06:35:03.029Z,8.61
2023-04-25T06:36:03.026Z,8.40
2023-04-25T06:37:03.025Z,7.16
2023-04-25T06:38:03.169Z,7.97
2023-04-25T06:39:03.014Z,8.45
2023-04-25T06:40:03.045Z,7.83
2023-04-25T06:41:03.003Z,5.01
2023-04-25T06:42:03.122Z,7.37
2023-04-25T06:43:03.150Z,6.28
2023-04-25T06:44:02.974Z,7.84
2023-04-25T06:45:02.980Z,7.67
2023-04-25T06:46:03.041Z,6.60
2023-04-25T06:47:03.076Z,8.60
2023-04-25T06:48:02.992Z,9.59
2023-04-25T06:49:02.943Z,6.80
2023-04-25T06:50:02.926Z,7.43
2023-04-25T06:51:02.945Z,7.31
2023-04-25T06:52:02.934Z,8.11
2023-04-25T06:53:02.924Z,6.72
2023-04-25T06:54:02.935Z,5.22
2023-04-25T06:55:02.921Z,7.34
2023-04-25T06:56:03.181Z,6.65
2023-04-25T06:57:02.868Z,6.26
2023-04-25T06:58:02.953Z,6.35
2023-04-25T06:59:02.896Z,6.27
2023-04-25T07:00:02.834Z,7.34
2023-04-25T07:01:02.872Z,7.89
2023-04-25T07:02:02.888Z,7.36
2023-04-25T07:03:03.030Z,8.54
2023-04-25T07:04:03.202Z,8.62
2023-04-25T07:05:02.839Z,8.66
2023-04-25T07:06:02.952Z,7.07
2023-04-25T07:07:02.839Z,6.97
2023-04-25T07:08:03.779Z,7.12
2023-04-25T07:09:02.803Z,8.09
2023-04-25T07:10:02.821Z,8.40
2023-04-25T07:11:02.795Z,8.80
2023-04-25T07:12:02.825Z,9.62
2023-04-25T07:13:03.181Z,7.64
2023-04-25T07:14:02.875Z,8.01
2023-04-25T07:15:02.768Z,7.01
2023-04-25T07:16:03.723Z,6.16
2023-04-25T07:17:03.054Z,6.99
2023-04-25T07:18:03.793Z,7.11
2023-04-25T07:19:02.759Z,7.81
2023-04-25T07:20:02.764Z,6.37
2023-04-25T07:21:02.839Z,5.41
2023-04-25T07:22:02.906Z,6.84
2023-04-25T07:23:02.912Z,10.32
2023-04-25T07:24:02.980Z,6.82
2023-04-25T07:25:03.026Z,6.33
2023-04-25T07:26:03.121Z,5.65
2023-04-25T07:27:03.151Z,6.60
2023-04-25T07:28:03.219Z,6.60
2023-04-25T07:29:03.276Z,6.31
2023-04-25T07:30:03.378Z,5.88
2023-04-25T07:31:03.428Z,7.66
2023-04-25T07:32:03.624Z,7.02
2023-04-25T07:33:03.707Z,7.70
2023-04-25T07:34:03.574Z,8.14
2023-04-25T07:35:03.654Z,9.26
2023-04-25T07:36:04.199Z,9.53
2023-04-25T07:37:04.673Z,8.60
2023-04-25T07:38:04.231Z,8.25
2023-04-25T07:39:03.824Z,8.36
2023-04-25T07:40:03.912Z,9.47
2023-04-25T07:41:04.181Z,6.52
2023-04-25T07:42:04.048Z,8.81
2023-04-25T07:43:04.119Z,8.01
2023-04-25T07:44:04.136Z,7.52
2023-04-25T07:45:04.254Z,7.77
2023-04-25T07:46:04.406Z,8.49
2023-04-25T07:47:04.590Z,8.78
2023-04-25T07:48:04.760Z,8.81
2023-04-25T07:49:04.473Z,7.61
2023-04-25T07:50:04.562Z,8.25
2023-04-25T07:51:04.558Z,8.07
2023-04-25T07:52:04.598Z,6.28
2023-04-25T07:53:05.237Z,5.75
2023-04-25T07:54:04.769Z,7.76
2023-04-25T07:55:04.739Z,6.56
2023-04-25T07:56:04.766Z,7.44
2023-04-25T07:57:04.786Z,6.13
2023-04-25T07:58:04.868Z,6.27
2023-04-25T07:59:05.224Z,4.96
2023-04-25T08:00:05.006Z,6.45
2023-04-25T08:01:04.940Z,6.17
2023-04-25T08:02:04.934Z,5.34
2023-04-25T08:03:05.250Z,4.95
2023-04-25T08:04:05.164Z,5.23
2023-04-25T08:05:05.268Z,4.74
2023-04-25T08:06:07.949Z,6.98
2023-04-25T08:07:05.094Z,4.62
2023-04-25T08:08:05.234Z,5.97
2023-04-25T08:09:05.727Z,6.44
2023-04-25T08:10:05.701Z,4.81
2023-04-25T08:11:05.207Z,5.16
2023-04-25T08:12:04.965Z,5.50
2023-04-25T08:13:05.694Z,5.46
2023-04-25T08:14:05.000Z,5.00
2023-04-25T08:15:05.018Z,4.26
2023-04-25T08:16:05.296Z,4.89
2023-04-25T08:17:05.011Z,5.48
2023-04-25T08:18:05.043Z,4.55
2023-04-25T08:19:05.152Z,4.61
2023-04-25T08:20:05.723Z,5.89
2023-04-25T08:21:04.925Z,4.67
2023-04-25T08:22:04.892Z,4.63
2023-04-25T08:23:04.864Z,3.98
2023-04-25T08:24:04.928Z,3.83
2023-04-25T08:25:04.861Z,4.23
2023-04-25T08:26:04.954Z,4.46
2023-04-25T08:27:04.840Z,4.89
2023-04-25T08:28:04.849Z,4.47
2023-04-25T08:29:05.308Z,5.47
2023-04-25T08:30:04.890Z,4.09
2023-04-25T08:31:04.865Z,5.17
2023-04-25T08:32:04.890Z,5.08
2023-04-25T08:33:04.935Z,4.24
2023-04-25T08:34:04.876Z,3.84
2023-04-25T08:35:04.796Z,3.29
2023-04-25T08:36:04.866Z,4.46
2023-04-25T08:37:04.825Z,4.45
2023-04-25T08:38:04.840Z,4.76
2023-04-25T08:39:05.348Z,4.29
2023-04-25T08:40:04.883Z,4.21
2023-04-25T08:41:04.778Z,6.73
2023-04-25T08:42:04.772Z,5.05
2023-04-25T08:43:05.701Z,4.82
2023-04-25T08:44:05.201Z,5.36
2023-04-25T08:45:07.079Z,4.39
2023-04-25T08:46:04.883Z,5.36
2023-04-25T08:47:05.016Z,4.35
2023-04-25T08:48:05.796Z,5.22
2023-04-25T08:49:04.977Z,5.71
2023-04-25T08:50:04.861Z,4.32
2023-04-25T08:51:05.214Z,4.52
2023-04-25T08:52:04.902Z,3.82
2023-04-25T08:53:04.910Z,4.41
2023-04-25T08:54:10.209Z,3.68
2023-04-25T08:55:05.954Z,3.83
2023-04-25T08:56:04.966Z,4.26
2023-04-25T08:57:05.166Z,3.55
2023-04-25T08:58:05.706Z,4.12
2023-04-25T08:59:05.221Z,3.56
2023-04-25T09:00:05.215Z,4.98
2023-04-25T09:01:05.202Z,3.40
2023-04-25T09:02:05.156Z,3.73
2023-04-25T09:03:05.245Z,3.56
2023-04-25T09:04:05.416Z,3.39
2023-04-25T09:05:05.083Z,4.13
2023-04-25T09:06:05.112Z,3.56
2023-04-25T09:07:05.230Z,4.40
2023-04-25T09:08:05.171Z,3.58
2023-04-25T09:09:05.528Z,3.59
2023-04-25T09:10:05.363Z,4.30
2023-04-25T09:11:05.345Z,4.74
2023-04-25T09:12:05.482Z,5.04
2023-04-25T09:13:05.503Z,6.89
2023-04-25T09:14:05.593Z,6.98
2023-04-25T09:15:05.579Z,5.39
2023-04-25T09:16:05.676Z,6.29
2023-04-25T09:17:06.193Z,7.65
2023-04-25T09:18:05.785Z,7.85
2023-04-25T09:19:05.868Z,9.61
2023-04-25T09:20:05.906Z,7.42
2023-04-25T09:21:12.993Z,8.13
2023-04-25T09:22:06.994Z,7.89
2023-04-25T09:23:05.891Z,6.75
2023-04-25T09:24:05.882Z,6.31
2023-04-25T09:25:05.857Z,7.51
2023-04-25T09:26:05.986Z,6.69
2023-04-25T09:27:05.891Z,8.16
2023-04-25T09:28:06.039Z,6.88
2023-04-25T09:29:05.865Z,11.48
2023-04-25T09:30:05.998Z,7.95
2023-04-25T09:31:05.838Z,7.12
2023-04-25T09:32:14.402Z,6.06
2023-04-25T09:33:05.998Z,6.74
2023-04-25T09:34:06.091Z,8.17
2023-04-25T09:35:05.856Z,6.66
2023-04-25T09:36:05.853Z,6.37
2023-04-25T09:37:06.251Z,8.17
2023-04-25T09:38:06.785Z,8.99
2023-04-25T09:39:06.754Z,9.09
2023-04-25T09:40:05.827Z,5.75
2023-04-25T09:41:05.852Z,6.39
2023-04-25T09:42:05.804Z,7.77
2023-04-25T09:43:05.782Z,4.84
2023-04-25T09:44:05.840Z,6.97
2023-04-25T09:45:05.746Z,7.02
2023-04-25T09:46:06.310Z,6.69
2023-04-25T09:47:06.239Z,10.11
2023-04-25T09:48:07.819Z,6.33
2023-04-25T09:49:06.276Z,5.54
2023-04-25T09:50:06.880Z,5.81
2023-04-25T09:51:05.930Z,5.77
2023-04-25T09:52:06.306Z,6.36
2023-04-25T09:53:06.027Z,6.26
2023-04-25T09:54:06.755Z,5.01
2023-04-25T09:55:06.166Z,6.71
2023-04-25T09:56:06.177Z,6.34
2023-04-25T09:57:06.356Z,7.69
2023-04-25T09:58:06.407Z,7.67
2023-04-25T09:59:06.796Z,7.29
2023-04-25T10:00:06.525Z,6.90
2023-04-25T10:01:06.451Z,8.18
2023-04-25T10:02:06.471Z,5.88
2023-04-25T10:03:07.355Z,9.64
2023-04-25T10:04:06.864Z,8.54
2023-04-25T10:05:06.681Z,6.65
2023-04-25T10:06:06.707Z,6.38
2023-04-25T10:07:08.245Z,6.92
2023-04-25T10:08:06.769Z,8.00
2023-04-25T10:09:06.769Z,7.49
2023-04-25T10:10:06.828Z,6.62
2023-04-25T10:11:06.883Z,7.64
2023-04-25T10:12:06.911Z,8.30
2023-04-25T10:13:06.977Z,7.96
2023-04-25T10:14:06.970Z,6.71
2023-04-25T10:15:07.034Z,7.64
2023-04-25T10:16:07.164Z,8.01
2023-04-25T10:17:07.082Z,6.37
2023-04-25T10:18:07.148Z,10.59
2023-04-25T10:19:07.784Z,7.19
2023-04-25T10:20:07.170Z,8.61
2023-04-25T10:21:07.196Z,7.12
2023-04-25T10:22:07.316Z,7.85
2023-04-25T10:23:07.273Z,8.64
2023-04-25T10:24:07.355Z,8.38
2023-04-25T10:25:07.283Z,8.88
2023-04-25T10:26:07.327Z,6.60
2023-04-25T10:27:08.289Z,8.11
2023-04-25T10:28:07.364Z,6.08
2023-04-25T10:29:07.476Z,9.87
2023-04-25T10:30:07.476Z,8.78
2023-04-25T10:31:07.558Z,13.56
2023-04-25T10:32:09.451Z,12.14
2023-04-25T10:33:07.351Z,9.41
2023-04-25T10:34:07.372Z,8.76
2023-04-25T10:35:07.400Z,7.33
2023-04-25T10:36:07.411Z,9.41
2023-04-25T10:37:07.631Z,6.31
2023-04-25T10:38:07.447Z,8.18
2023-04-25T10:39:07.485Z,6.36
2023-04-25T10:40:08.308Z,7.31
2023-04-25T10:41:07.510Z,6.22
2023-04-25T10:42:07.627Z,4.72
2023-04-25T10:43:07.559Z,5.61
2023-04-25T10:44:07.550Z,5.21
2023-04-25T10:45:07.627Z,4.96
2023-04-25T10:46:07.753Z,4.92
2023-04-25T10:47:07.803Z,3.77
2023-04-25T10:48:07.721Z,5.02
2023-04-25T10:49:07.701Z,4.02
2023-04-25T10:50:07.936Z,5.03
2023-04-25T10:51:07.912Z,4.81
2023-04-25T10:52:07.774Z,4.34
2023-04-25T10:53:07.780Z,4.62
2023-04-25T10:54:07.896Z,4.88
2023-04-25T10:55:07.919Z,4.40
2023-04-25T10:56:09.624Z,4.09
2023-04-25T10:57:08.050Z,3.75
2023-04-25T10:58:08.127Z,5.17
2023-04-25T10:59:08.172Z,4.39
2023-04-25T11:00:08.150Z,5.71
2023-04-25T11:01:08.223Z,4.32
2023-04-25T11:02:08.276Z,4.79
2023-04-25T11:03:08.428Z,5.08
2023-04-25T11:04:08.682Z,4.13
2023-04-25T11:05:08.283Z,3.91
2023-04-25T11:06:08.365Z,4.70
2023-04-25T11:07:08.655Z,4.13
2023-04-25T11:08:08.589Z,4.55
2023-04-25T11:09:08.485Z,5.94
2023-04-25T11:10:09.325Z,4.35
2023-04-25T11:11:08.577Z,4.30
2023-04-25T11:12:09.279Z,3.96
2023-04-25T11:13:08.550Z,4.64
2023-04-25T11:14:08.574Z,4.88
2023-04-25T11:15:08.822Z,4.78
2023-04-25T11:16:12.883Z,5.29
2023-04-25T11:17:08.673Z,4.97
2023-04-25T11:18:08.701Z,4.46
2023-04-25T11:19:08.627Z,11.53
2023-04-25T11:20:08.741Z,7.25
2023-04-25T11:21:08.598Z,5.79
2023-04-25T11:22:08.626Z,5.57
2023-04-25T11:23:08.634Z,5.34
2023-04-25T11:24:08.868Z,6.14
2023-04-25T11:25:08.723Z,5.03
2023-04-25T11:26:08.595Z,4.53
2023-04-25T11:27:08.817Z,5.40
2023-04-25T11:28:08.581Z,4.80
2023-04-25T11:29:08.551Z,4.59
2023-04-25T11:30:08.570Z,6.25
2023-04-25T11:31:08.538Z,5.49
2023-04-25T11:32:09.337Z,5.72
2023-04-25T11:33:08.576Z,4.19
2023-04-25T11:34:08.651Z,5.53
2023-04-25T11:35:08.666Z,5.82
2023-04-25T11:36:08.739Z,5.31
2023-04-25T11:37:08.742Z,4.92
2023-04-25T11:38:08.768Z,5.48
2023-04-25T11:39:08.808Z,5.51
2023-04-25T11:40:08.859Z,5.69
2023-04-25T11:41:08.881Z,5.02
2023-04-25T11:42:11.171Z,5.48
2023-04-25T11:43:09.938Z,5.76
2023-04-25T11:44:08.936Z,4.63
2023-04-25T11:45:08.905Z,5.25
2023-04-25T11:46:09.160Z,5.45
2023-04-25T11:47:08.989Z,4.82
2023-04-25T11:48:08.929Z,5.11
2023-04-25T11:49:08.873Z,4.52
2023-04-25T11:50:08.894Z,4.67
2023-04-25T11:51:08.862Z,4.26
2023-04-25T11:52:08.880Z,4.64
2023-04-25T11:53:08.859Z,5.25
2023-04-25T11:54:08.862Z,5.18
2023-04-25T11:55:09.730Z,3.55
2023-04-25T11:56:09.872Z,4.40
2023-04-25T11:57:08.978Z,4.70
2023-04-25T11:58:09.042Z,6.01
2023-04-25T11:59:09.263Z,4.14
2023-04-25T12:00:09.182Z,4.85
2023-04-25T12:01:09.347Z,3.87
2023-04-25T12:02:09.216Z,4.36
2023-04-25T12:03:09.651Z,4.96
2023-04-25T12:04:09.521Z,4.66
2023-04-25T12:05:29.460Z,4.33
2023-04-25T12:06:10.508Z,4.22
2023-04-25T12:07:09.367Z,3.55
2023-04-25T12:08:09.386Z,4.55
2023-04-25T12:09:09.353Z,4.80
2023-04-25T12:10:12.401Z,3.76
2023-04-25T12:11:09.500Z,4.21
2023-04-25T12:12:09.301Z,4.05
2023-04-25T12:13:09.445Z,5.88
2023-04-25T12:14:09.301Z,3.63
2023-04-25T12:15:09.319Z,4.52
2023-04-25T12:16:09.511Z,4.59
2023-04-25T12:17:09.571Z,4.78
2023-04-25T12:18:09.301Z,4.27
2023-04-25T12:19:09.332Z,4.37
2023-04-25T12:20:09.369Z,4.02
2023-04-25T12:21:09.340Z,3.91
2023-04-25T12:22:09.290Z,4.18
2023-04-25T12:23:09.836Z,3.95
2023-04-25T12:24:09.270Z,3.65
2023-04-25T12:25:09.251Z,3.66
2023-04-25T12:26:09.209Z,3.95
2023-04-25T12:27:09.493Z,4.97
2023-04-25T12:28:09.188Z,3.98
2023-04-25T12:29:09.210Z,3.03
2023-04-25T12:30:09.187Z,4.03
2023-04-25T12:31:09.176Z,4.31
2023-04-25T12:32:09.162Z,4.40
2023-04-25T12:33:09.185Z,3.56
2023-04-25T12:34:09.160Z,4.17
2023-04-25T12:35:09.175Z,4.44
2023-04-25T12:36:09.133Z,3.39
2023-04-25T12:37:09.128Z,4.94
2023-04-25T12:38:09.111Z,3.44
2023-04-25T12:39:09.107Z,4.16
2023-04-25T12:40:09.145Z,3.69
2023-04-25T12:41:09.082Z,3.11
2023-04-25T12:42:10.030Z,4.62
2023-04-25T12:43:09.123Z,3.76
2023-04-25T12:44:09.078Z,2.63
2023-04-25T12:45:09.128Z,3.52
2023-04-25T12:46:09.093Z,3.22
2023-04-25T12:47:09.220Z,3.39
2023-04-25T12:48:09.143Z,3.22
2023-04-25T12:49:18.643Z,3.55
2023-04-25T12:50:10.065Z,3.28
2023-04-25T12:51:09.053Z,3.10
2023-04-25T12:52:09.030Z,3.13
2023-04-25T12:53:09.043Z,3.62
2023-04-25T12:54:09.023Z,3.31
2023-04-25T12:55:09.029Z,3.39
2023-04-25T12:56:09.045Z,4.64
2023-04-25T12:57:09.055Z,3.21
2023-04-25T12:58:09.024Z,2.88
2023-04-25T12:59:09.001Z,3.76
2023-04-25T13:00:09.054Z,3.04
2023-04-25T13:01:09.057Z,2.64
2023-04-25T13:02:09.175Z,3.53
2023-04-25T13:03:09.220Z,4.34
2023-04-25T13:04:09.362Z,3.57
2023-04-25T13:05:09.272Z,3.14
2023-04-25T13:06:09.357Z,3.13
2023-04-25T13:07:09.628Z,3.54
2023-04-25T13:08:09.482Z,2.60
2023-04-25T13:09:09.492Z,3.32
2023-04-25T13:10:09.558Z,3.24
2023-04-25T13:11:09.635Z,5.74
2023-04-25T13:12:09.686Z,3.73
2023-04-25T13:13:09.696Z,3.78
2023-04-25T13:14:09.732Z,3.56
2023-04-25T13:15:09.828Z,2.81
2023-04-25T13:16:09.988Z,3.08
2023-04-25T13:17:10.040Z,2.54
2023-04-25T13:18:10.106Z,2.38
2023-04-25T13:19:10.049Z,2.66